• Join FlightAware (Why Join?)
  • Login
  • US Flag 
12:56PM EDT


 

Airport Tracker/Info


-or-


 

Live Flight TrackerFlight Track Log ✈ EJA101 ✈ 07-May-2013 ✈ KLAS - KOMA

Flight Track Log - Related Links

Times and Time Zones

All times are in EDT time to prevent confusion due to time zone crossing. See the EJA101 flight status page for this flight to view local times or setup timezone preferences in your user account.

Time Position Orientation Groundspeed Altitude Reporting Facility
EDT Latitude Longitude Course Direction KTS MPH feet Rate Location/Type
01:55PM 36.0764 -115.1600 270° West 190 219 3,400  Level Los Angeles Center
01:56PM 36.0764 -115.2400 270° West 233 268 7,400 4,020 Climbing Los Angeles Center
01:57PM 36.1208 -115.2944 315° West 257 296 11,600 3,480 Climbing Los Angeles Center
01:58PM 36.1814 -115.2325 40° Northeast 282 325 15,100 2,220 Climbing Los Angeles Center
01:59PM 36.1967 -115.1131 81° East 368 423 16,500 2,160 Climbing Los Angeles Center
02:00PM 36.1978 -114.9756 89° East 400 460 19,600 2,820 Climbing Los Angeles Center
02:01PM 36.1989 -114.8294 89° East 421 484 22,400 3,000 Climbing Los Angeles Center
02:02PM 36.1981 -114.6472 90° East 441 507 25,800 2,640 Climbing Los Angeles Center
02:03PM 36.1953 -114.4867 91° East 464 534 27,900 1,860 Climbing Los Angeles Center
02:04PM 36.1939 -114.3164 91° East 489 563 29,700 1,860 Climbing Los Angeles Center
02:05PM 36.2053 -114.1392 85° East 514 592 31,800 2,100 Climbing Los Angeles Center
02:06PM 36.2261 -113.9592 82° East 528 608 34,100 2,580 Climbing Los Angeles Center
02:07PM 36.2472 -113.7842 81° East 519 597 37,200 2,760 Climbing Los Angeles Center
02:08PM 36.2719 -113.5806 81° East 502 578 39,900 1,800 Climbing Los Angeles Center
02:09PM 36.2906 -113.4106 82° East 499 574 41,000 480 Climbing Los Angeles Center
02:10PM 36.3125 -113.2344 81° East 513 590 41,000  Level Los Angeles Center
02:11PM 36.3661 -113.0800 67° East 523 602 41,000  Level Los Angeles Center
02:12PM 36.4389 -112.8833 65° Northeast 526 605 41,000  Level Los Angeles Center
02:13PM 36.4983 -112.7214 65° Northeast 521 600 41,000  Level Los Angeles Center
02:14PM 36.5578 -112.5594 65° Northeast 519 597 41,000  Level Los Angeles Center
02:15PM 36.6172 -112.3978 65° Northeast 518 596 41,000  Level Los Angeles Center
02:16PM 36.6758 -112.2344 66° East 519 597 41,000  Level Los Angeles Center
02:17PM 36.7461 -112.0406 66° East 517 595 41,000  Level Los Angeles Center
02:18PM 36.7697 -111.9742 66° East 519 597 41,000  Level Denver Center
02:19PM 36.8283 -111.8125 66° East 516 594 41,000  Level Denver Center
02:20PM 36.8881 -111.6467 66° East 522 601 41,000  Level Denver Center
02:21PM 36.9467 -111.4833 66° East 522 601 41,000  Level Denver Center
02:22PM 37.0058 -111.3219 65° Northeast 516 594 41,000  Level Denver Center
02:23PM 37.0675 -111.1600 64° Northeast 516 594 41,000  Level Denver Center
02:24PM 37.1397 -110.9661 65° Northeast 515 593 41,000  Level Denver Center
02:25PM 37.2003 -110.8058 65° Northeast 512 589 41,000  Level Denver Center
02:26PM 37.2619 -110.6425 65° Northeast 519 597 41,000  Level Denver Center
02:27PM 37.3228 -110.4789 65° Northeast 520 598 41,000  Level Denver Center
02:28PM 37.3825 -110.3158 65° Northeast 517 595 41,000  Level Denver Center
02:29PM 37.4481 -110.1381 65° Northeast 516 594 41,000  Level Denver Center
02:30PM 37.5056 -109.9808 65° Northeast 515 593 41,000  Level Denver Center
02:31PM 37.5725 -109.7964 65° Northeast 517 595 41,000  Level Denver Center
02:32PM 37.6297 -109.6383 65° Northeast 516 594 41,000  Level Denver Center
02:33PM 37.6778 -109.5067 65° Northeast 517 595 41,000  Level Denver Center
02:34PM 37.7531 -109.2950 66° East 518 596 41,000  Level Denver Center
02:35PM 37.8192 -109.1072 66° East 522 601 41,000  Level Denver Center
02:36PM 37.8750 -108.9494 66° East 514 592 41,000  Level Denver Center
02:37PM 37.9303 -108.7931 66° East 508 585 41,000  Level Denver Center
02:38PM 37.9958 -108.6053 66° East 517 595 41,000  Level Denver Center
02:39PM 38.0511 -108.4464 66° East 515 593 41,000  Level Denver Center
02:40PM 38.1133 -108.2653 66° East 530 610 41,000  Level Denver Center
02:41PM 38.1778 -108.0769 66° East 524 603 41,000  Level Denver Center
02:42PM 38.2308 -107.9203 67° East 510 587 41,000  Level Denver Center
02:44PM 38.2953 -107.7317 66° East 519 597 41,000  Level Denver Center
02:45PM 38.3492 -107.5731 67° East 515 593 41,000  Level Denver Center
02:46PM 38.4025 -107.4111 67° East 517 595 41,000  Level Denver Center
02:47PM 38.4656 -107.2244 67° East 516 594 41,000  Level Denver Center
02:48PM 38.5206 -107.0564 67° East 516 594 41,000  Level Denver Center
02:49PM 38.5867 -106.8544 67° East 514 592 41,000  Level Denver Center
02:50PM 38.6544 -106.6508 67° East 522 601 41,000  Level Denver Center
02:51PM 38.7078 -106.4828 68° East 514 592 41,000  Level Denver Center
02:52PM 38.7725 -106.2800 68° East 515 593 41,000  Level Denver Center
02:53PM 38.8228 -106.1281 67° East 514 592 41,000  Level Denver Center
02:54PM 38.8853 -105.9278 68° East 515 593 41,000  Level Denver Center
02:55PM 38.9386 -105.7581 68° East 510 587 41,000  Level Denver Center
02:56PM 38.9919 -105.5903 68° East 505 581 41,000  Level Denver Center
02:57PM 39.0444 -105.4231 68° East 503 579 41,000  Level Denver Center
02:58PM 39.0956 -105.2575 68° East 497 572 41,000  Level Denver Center
02:59PM 39.1492 -105.0906 67° East 500 575 41,000  Level Denver Center
03:00PM 39.2011 -104.9186 69° East 511 588 41,000  Level Denver Center
03:01PM 39.2522 -104.7497 69° East 506 582 41,000  Level Denver Center
03:02PM 39.3122 -104.5547 68° East 503 579 41,000  Level Denver Center
03:03PM 39.3625 -104.3839 69° East 510 587 41,000  Level Denver Center
03:05PM 39.4139 -104.2122 69° East 513 590 41,000  Level Denver Center
03:06PM 39.4644 -104.0417 69° East 508 585 41,000  Level Denver Center
03:07PM 39.5150 -103.8700 69° East 508 585 41,000  Level Denver Center
03:08PM 39.5661 -103.7011 69° East 501 577 41,000  Level Denver Center
03:09PM 39.6233 -103.4994 70° East 508 585 41,000  Level Denver Center
03:10PM 39.6744 -103.3267 69° East 508 585 41,000  Level Denver Center
03:11PM 39.7244 -103.1522 70° East 511 588 41,000  Level Denver Center
03:12PM 39.7822 -102.9489 70° East 512 589 41,000  Level Denver Center
03:13PM 39.8319 -102.7750 70° East 509 586 41,000  Level Denver Center
03:14PM 39.8883 -102.5742 70° East 513 590 41,000  Level Denver Center
03:15PM 39.9347 -102.4089 70° East 510 587 41,000  Level Denver Center
03:16PM 39.9808 -102.2425 70° East 510 587 41,000  Level Denver Center
03:17PM 40.0336 -102.0478 70° East 511 588 41,000  Level Denver Center
03:18PM 40.0783 -101.8839 70° East 505 581 41,000  Level Denver Center
03:19PM 40.1314 -101.6914 70° East 506 582 41,000  Level Denver Center
03:20PM 40.1753 -101.5244 71° East 510 587 41,000  Level Denver Center
03:21PM 40.2283 -101.3286 70° East 513 590 41,000  Level Denver Center
03:22PM 40.2728 -101.1606 71° East 513 590 41,000  Level Denver Center
03:23PM 40.3239 -100.9664 71° East 509 586 41,000  Level Denver Center
03:24PM 40.3669 -100.8008 71° East 506 582 41,000  Level Denver Center
03:25PM 40.4181 -100.6047 71° East 512 589 41,000  Level Denver Center
03:26PM 40.4614 -100.4383 71° East 509 586 41,000  Level Denver Center
03:27PM 40.5114 -100.2411 72° East 513 590 41,000  Level Denver Center
03:28PM 40.5550 -100.0731 71° East 511 588 41,000 -540 Level Denver Center
03:29PM 40.5972 -99.9039 72° East 512 589 40,000 -1,080 Descending Denver Center
03:30PM 40.6422 -99.7261 71° East 506 582 38,800 -1,200 Descending Denver Center
03:31PM 40.6858 -99.5489 72° East 509 586 37,600 -1,320 Descending Denver Center
03:33PM 40.7381 -99.3350 72° East 508 585 36,100 -1,260 Descending Denver Center
03:34PM 40.7825 -99.1581 72° East 509 586 35,100 -540 Descending Denver Center
03:35PM 40.8278 -98.9700 72° East 512 589 35,000 -60 Descending Denver Center
03:36PM 40.8631 -98.8203 73° East 509 586 35,000  Level Minneapolis Center
03:37PM 40.9069 -98.6425 72° East 509 586 35,000  Level Minneapolis Center
03:38PM 40.9489 -98.4639 73° East 509 586 35,000 -540 Level Minneapolis Center
03:39PM 40.9939 -98.2761 72° East 510 587 34,000 -1,560 Descending Minneapolis Center
03:40PM 41.0411 -98.1011 70° East 508 585 31,800 -2,340 Descending Minneapolis Center
03:41PM 41.0972 -97.8933 70° East 502 578 29,200 -2,340 Descending Minneapolis Center
03:42PM 41.1414 -97.7256 71° East 488 562 27,000 -1,920 Descending Minneapolis Center
03:43PM 41.1850 -97.5558 71° East 486 559 24,900 -2,040 Descending Minneapolis Center
03:44PM 41.2372 -97.3578 71° East 489 563 22,400 -1,920 Descending Minneapolis Center
03:45PM 41.2797 -97.1961 71° East 471 542 21,000 -840 Descending Minneapolis Center
03:46PM 41.3081 -97.0303 77° East 462 532 20,800 -960 Descending Minneapolis Center
03:47PM 41.3394 -96.9189 69° East 439 505 19,500 -2,100 Descending Minneapolis Center
03:47PM 41.3647 -96.8514 63° Northeast 433 498 18,400 -1,680 Descending Minneapolis Center
03:48PM 41.3419 -96.7800 113° Southeast 356 410 17,800 -1,260 Descending Minneapolis Center
03:48PM 41.3486 -96.7208 81° East 360 414 17,100 -2,580 Descending Minneapolis Center
03:49PM 41.3425 -96.6494 96° East 322 371 15,200 -2,940 Descending Minneapolis Center
03:49PM 41.3528 -96.6003 74° East 332 382 14,100 -3,120 Descending Minneapolis Center
03:50PM 41.3483 -96.5353 95° East 315 362 12,100 -3,240 Descending Minneapolis Center
03:50PM 41.3572 -96.4864 76° East 316 364 10,800 -3,180 Descending Minneapolis Center
03:51PM 41.3508 -96.4406 101° East 300 345 9,200 -3,300 Descending Minneapolis Center
03:51PM 41.3603 -96.3775 79° East 301 346 7,500 -2,400 Descending Minneapolis Center
03:52PM 41.3567 -96.3317 96° East 256 295 6,800 -1,380 Descending Minneapolis Center
03:52PM 41.3628 -96.2850 80° East 275 316 6,100 -1,560 Descending Minneapolis Center
03:53PM 41.3592 -96.2397 96° East 216 249 5,100 -1,860 Descending Minneapolis Center
03:53PM 41.3653 -96.1894 81° East 233 268 4,200 -1,140 Descending Minneapolis Center
03:54PM 41.3628 -96.1617 97° East 216 249 4,000 -540 Descending Minneapolis Center
03:54PM 41.3672 -96.1097 83° East 221 254 3,700 -840 Descending Minneapolis Center
03:55PM 41.3667 -96.0583 91° East 211 243 2,900 -780 Descending Minneapolis Center
03:56PM 41.3694 -96.0283 83° East 216 249 2,800 -360 Descending Minneapolis Center
03:56PM 41.3644 -95.9947 101° East 176 203 2,600 -420 Descending Minneapolis Center
03:57PM 41.3586 -95.9611 103° East 193 222 2,400 -780 Descending Minneapolis Center
03:57PM 41.3419 -95.9392 135° Southeast 131 151 1,800 -1,020 Descending Minneapolis Center
03:58PM 41.3275 -95.9178 132° Southeast 154 177 1,400 -540 Descending Minneapolis Center
03:59PM 41.3042 -95.8969 146° Southeast 137 158 1,000 -420 Descending Minneapolis Center